sensor_id;sensor_type;location;lat;lon;timestamp;P1;durP1;ratioP1;P2;durP2;ratioP2
24729;SDS011;12832;52.392;13.066;2023-08-17T00:01:27;1.10;;;1.10;;
24729;SDS011;12832;52.392;13.066;2023-08-17T00:03:53;0.90;;;0.90;;
24729;SDS011;12832;52.392;13.066;2023-08-17T00:06:20;1.27;;;1.17;;
24729;SDS011;12832;52.392;13.066;2023-08-17T00:08:46;1.08;;;1.08;;
24729;SDS011;12832;52.392;13.066;2023-08-17T00:11:12;0.93;;;0.90;;
24729;SDS011;12832;52.392;13.066;2023-08-17T00:13:38;0.90;;;0.90;;
24729;SDS011;12832;52.392;13.066;2023-08-17T00:16:04;0.98;;;0.93;;
24729;SDS011;12832;52.392;13.066;2023-08-17T00:18:31;1.13;;;1.02;;
24729;SDS011;12832;52.392;13.066;2023-08-17T00:20:57;1.25;;;1.15;;
24729;SDS011;12832;52.392;13.066;2023-08-17T00:23:23;1.20;;;1.10;;
24729;SDS011;12832;52.392;13.066;2023-08-17T00:25:50;1.00;;;1.00;;
24729;SDS011;12832;52.392;13.066;2023-08-17T00:28:16;1.00;;;1.00;;
24729;SDS011;12832;52.392;13.066;2023-08-17T00:30:42;1.10;;;1.00;;
24729;SDS011;12832;52.392;13.066;2023-08-17T00:33:08;0.93;;;0.93;;
24729;SDS011;12832;52.392;13.066;2023-08-17T00:35:36;0.90;;;0.90;;
24729;SDS011;12832;52.392;13.066;2023-08-17T00:38:02;1.00;;;1.00;;
24729;SDS011;12832;52.392;13.066;2023-08-17T00:40:28;1.00;;;1.00;;
24729;SDS011;12832;52.392;13.066;2023-08-17T00:42:54;1.20;;;1.10;;
24729;SDS011;12832;52.392;13.066;2023-08-17T00:45:21;1.20;;;1.10;;
24729;SDS011;12832;52.392;13.066;2023-08-17T00:47:49;0.90;;;0.90;;
24729;SDS011;12832;52.392;13.066;2023-08-17T00:50:15;1.00;;;1.00;;
24729;SDS011;12832;52.392;13.066;2023-08-17T00:52:42;1.10;;;1.10;;
24729;SDS011;12832;52.392;13.066;2023-08-17T00:55:08;1.15;;;1.15;;
24729;SDS011;12832;52.392;13.066;2023-08-17T00:57:36;1.13;;;1.02;;
24729;SDS011;12832;52.392;13.066;2023-08-17T01:00:03;0.95;;;0.95;;
24729;SDS011;12832;52.392;13.066;2023-08-17T01:02:31;0.80;;;0.80;;
24729;SDS011;12832;52.392;13.066;2023-08-17T01:04:58;0.90;;;0.90;;
24729;SDS011;12832;52.392;13.066;2023-08-17T01:07:26;0.90;;;0.90;;
24729;SDS011;12832;52.392;13.066;2023-08-17T01:09:52;1.05;;;1.05;;
24729;SDS011;12832;52.392;13.066;2023-08-17T01:15:21;0.80;;;0.80;;
24729;SDS011;12832;52.392;13.066;2023-08-17T01:18:11;1.10;;;1.00;;
24729;SDS011;12832;52.392;13.066;2023-08-17T01:20:54;0.82;;;0.82;;
24729;SDS011;12832;52.392;13.066;2023-08-17T01:23:21;1.10;;;1.00;;
24729;SDS011;12832;52.392;13.066;2023-08-17T01:25:48;1.20;;;1.10;;
24729;SDS011;12832;52.392;13.066;2023-08-17T01:28:15;1.13;;;1.05;;
24729;SDS011;12832;52.392;13.066;2023-08-17T01:30:47;1.25;;;1.15;;
24729;SDS011;12832;52.392;13.066;2023-08-17T01:33:37;1.00;;;1.00;;
24729;SDS011;12832;52.392;13.066;2023-08-17T01:39:09;1.10;;;1.02;;
24729;SDS011;12832;52.392;13.066;2023-08-17T01:41:37;1.05;;;1.05;;
24729;SDS011;12832;52.392;13.066;2023-08-17T01:44:05;1.30;;;1.20;;
24729;SDS011;12832;52.392;13.066;2023-08-17T01:46:32;0.73;;;0.73;;
24729;SDS011;12832;52.392;13.066;2023-08-17T01:48:59;0.90;;;0.90;;
24729;SDS011;12832;52.392;13.066;2023-08-17T01:51:25;0.90;;;0.90;;
24729;SDS011;12832;52.392;13.066;2023-08-17T01:53:52;0.90;;;0.90;;
24729;SDS011;12832;52.392;13.066;2023-08-17T01:56:18;0.93;;;0.90;;
24729;SDS011;12832;52.392;13.066;2023-08-17T01:58:44;0.90;;;0.90;;
24729;SDS011;12832;52.392;13.066;2023-08-17T02:01:10;0.88;;;0.88;;
24729;SDS011;12832;52.392;13.066;2023-08-17T02:03:37;1.25;;;1.15;;
24729;SDS011;12832;52.392;13.066;2023-08-17T02:06:03;1.23;;;1.13;;
24729;SDS011;12832;52.392;13.066;2023-08-17T02:08:29;0.90;;;0.85;;
24729;SDS011;12832;52.392;13.066;2023-08-17T02:10:55;0.90;;;0.90;;
24729;SDS011;12832;52.392;13.066;2023-08-17T02:13:22;0.90;;;0.90;;
24729;SDS011;12832;52.392;13.066;2023-08-17T02:15:48;0.90;;;0.90;;
24729;SDS011;12832;52.392;13.066;2023-08-17T02:18:14;0.85;;;0.85;;
24729;SDS011;12832;52.392;13.066;2023-08-17T02:20:40;0.82;;;0.82;;
24729;SDS011;12832;52.392;13.066;2023-08-17T02:23:06;0.80;;;0.80;;
24729;SDS011;12832;52.392;13.066;2023-08-17T02:25:33;0.90;;;0.90;;
24729;SDS011;12832;52.392;13.066;2023-08-17T02:28:03;0.75;;;0.75;;
24729;SDS011;12832;52.392;13.066;2023-08-17T02:30:29;0.90;;;0.90;;
24729;SDS011;12832;52.392;13.066;2023-08-17T02:32:56;0.80;;;0.80;;
24729;SDS011;12832;52.392;13.066;2023-08-17T02:35:23;0.90;;;0.90;;
24729;SDS011;12832;52.392;13.066;2023-08-17T02:37:50;0.77;;;0.77;;
24729;SDS011;12832;52.392;13.066;2023-08-17T02:40:16;0.70;;;0.70;;
24729;SDS011;12832;52.392;13.066;2023-08-17T02:42:43;0.65;;;0.65;;
24729;SDS011;12832;52.392;13.066;2023-08-17T02:45:09;0.70;;;0.70;;
24729;SDS011;12832;52.392;13.066;2023-08-17T02:47:36;0.70;;;0.70;;
24729;SDS011;12832;52.392;13.066;2023-08-17T02:50:02;0.60;;;0.60;;
24729;SDS011;12832;52.392;13.066;2023-08-17T02:52:29;0.75;;;0.75;;
24729;SDS011;12832;52.392;13.066;2023-08-17T02:54:55;0.65;;;0.65;;
24729;SDS011;12832;52.392;13.066;2023-08-17T02:57:21;0.60;;;0.60;;
24729;SDS011;12832;52.392;13.066;2023-08-17T02:59:47;1.08;;;0.82;;
24729;SDS011;12832;52.392;13.066;2023-08-17T03:02:14;0.70;;;0.70;;
24729;SDS011;12832;52.392;13.066;2023-08-17T03:04:40;0.80;;;0.80;;
24729;SDS011;12832;52.392;13.066;2023-08-17T03:07:07;0.80;;;0.80;;
24729;SDS011;12832;52.392;13.066;2023-08-17T03:09:33;0.60;;;0.60;;
24729;SDS011;12832;52.392;13.066;2023-08-17T03:11:59;0.60;;;0.60;;
24729;SDS011;12832;52.392;13.066;2023-08-17T03:14:25;0.65;;;0.65;;
24729;SDS011;12832;52.392;13.066;2023-08-17T03:16:52;0.60;;;0.60;;
24729;SDS011;12832;52.392;13.066;2023-08-17T03:19:18;0.80;;;0.80;;
24729;SDS011;12832;52.392;13.066;2023-08-17T03:21:44;0.50;;;0.50;;
24729;SDS011;12832;52.392;13.066;2023-08-17T03:24:10;0.60;;;0.60;;
24729;SDS011;12832;52.392;13.066;2023-08-17T03:26:36;0.60;;;0.60;;
24729;SDS011;12832;52.392;13.066;2023-08-17T03:29:03;0.55;;;0.55;;
24729;SDS011;12832;52.392;13.066;2023-08-17T03:31:29;0.68;;;0.68;;
24729;SDS011;12832;52.392;13.066;2023-08-17T03:33:55;0.70;;;0.70;;
24729;SDS011;12832;52.392;13.066;2023-08-17T03:36:22;0.60;;;0.60;;
24729;SDS011;12832;52.392;13.066;2023-08-17T03:38:48;0.60;;;0.60;;
24729;SDS011;12832;52.392;13.066;2023-08-17T03:41:14;0.60;;;0.60;;
24729;SDS011;12832;52.392;13.066;2023-08-17T03:43:40;0.45;;;0.45;;
24729;SDS011;12832;52.392;13.066;2023-08-17T03:46:07;0.50;;;0.50;;
24729;SDS011;12832;52.392;13.066;2023-08-17T03:48:33;0.73;;;0.73;;
24729;SDS011;12832;52.392;13.066;2023-08-17T03:50:59;0.60;;;0.60;;
24729;SDS011;12832;52.392;13.066;2023-08-17T03:53:27;0.40;;;0.40;;
24729;SDS011;12832;52.392;13.066;2023-08-17T03:55:53;0.50;;;0.50;;
24729;SDS011;12832;52.392;13.066;2023-08-17T03:58:19;0.60;;;0.60;;
24729;SDS011;12832;52.392;13.066;2023-08-17T04:00:49;0.60;;;0.60;;
24729;SDS011;12832;52.392;13.066;2023-08-17T04:03:16;0.57;;;0.57;;
24729;SDS011;12832;52.392;13.066;2023-08-17T04:05:43;0.90;;;0.60;;
24729;SDS011;12832;52.392;13.066;2023-08-17T04:08:09;0.50;;;0.50;;
24729;SDS011;12832;52.392;13.066;2023-08-17T04:10:36;0.50;;;0.50;;
24729;SDS011;12832;52.392;13.066;2023-08-17T04:13:02;0.75;;;0.73;;
24729;SDS011;12832;52.392;13.066;2023-08-17T04:15:28;0.60;;;0.60;;
24729;SDS011;12832;52.392;13.066;2023-08-17T04:17:54;0.70;;;0.60;;
24729;SDS011;12832;52.392;13.066;2023-08-17T04:20:21;0.65;;;0.40;;
24729;SDS011;12832;52.392;13.066;2023-08-17T04:22:48;0.50;;;0.50;;
24729;SDS011;12832;52.392;13.066;2023-08-17T04:25:14;0.50;;;0.50;;
24729;SDS011;12832;52.392;13.066;2023-08-17T04:27:41;0.43;;;0.43;;
24729;SDS011;12832;52.392;13.066;2023-08-17T04:30:07;0.50;;;0.50;;
24729;SDS011;12832;52.392;13.066;2023-08-17T04:32:34;0.50;;;0.50;;
24729;SDS011;12832;52.392;13.066;2023-08-17T04:35:00;0.35;;;0.32;;
24729;SDS011;12832;52.392;13.066;2023-08-17T04:37:27;0.50;;;0.50;;
24729;SDS011;12832;52.392;13.066;2023-08-17T04:39:53;0.50;;;0.50;;
24729;SDS011;12832;52.392;13.066;2023-08-17T04:42:19;0.57;;;0.57;;
24729;SDS011;12832;52.392;13.066;2023-08-17T04:44:46;0.95;;;0.70;;
24729;SDS011;12832;52.392;13.066;2023-08-17T04:47:12;0.52;;;0.40;;
24729;SDS011;12832;52.392;13.066;2023-08-17T04:49:38;0.50;;;0.50;;
24729;SDS011;12832;52.392;13.066;2023-08-17T04:52:07;0.40;;;0.40;;
24729;SDS011;12832;52.392;13.066;2023-08-17T04:54:33;0.30;;;0.30;;
24729;SDS011;12832;52.392;13.066;2023-08-17T04:56:59;0.50;;;0.50;;
24729;SDS011;12832;52.392;13.066;2023-08-17T04:59:26;0.40;;;0.40;;
24729;SDS011;12832;52.392;13.066;2023-08-17T05:01:52;0.50;;;0.50;;
24729;SDS011;12832;52.392;13.066;2023-08-17T05:04:19;0.47;;;0.47;;
24729;SDS011;12832;52.392;13.066;2023-08-17T05:06:46;0.65;;;0.55;;
24729;SDS011;12832;52.392;13.066;2023-08-17T05:09:12;0.77;;;0.55;;
24729;SDS011;12832;52.392;13.066;2023-08-17T05:11:38;0.80;;;0.70;;
24729;SDS011;12832;52.392;13.066;2023-08-17T05:14:04;1.25;;;0.88;;
24729;SDS011;12832;52.392;13.066;2023-08-17T05:16:30;0.70;;;0.70;;
24729;SDS011;12832;52.392;13.066;2023-08-17T05:18:57;1.85;;;0.80;;
24729;SDS011;12832;52.392;13.066;2023-08-17T05:21:25;2.35;;;1.08;;
24729;SDS011;12832;52.392;13.066;2023-08-17T05:23:51;1.85;;;1.10;;
24729;SDS011;12832;52.392;13.066;2023-08-17T05:26:18;1.58;;;1.30;;
24729;SDS011;12832;52.392;13.066;2023-08-17T05:28:44;1.60;;;1.20;;
24729;SDS011;12832;52.392;13.066;2023-08-17T05:31:10;3.47;;;1.20;;
24729;SDS011;12832;52.392;13.066;2023-08-17T05:33:37;1.33;;;0.98;;
24729;SDS011;12832;52.392;13.066;2023-08-17T05:36:03;2.72;;;1.33;;
24729;SDS011;12832;52.392;13.066;2023-08-17T05:38:29;2.28;;;1.20;;
24729;SDS011;12832;52.392;13.066;2023-08-17T05:40:56;2.67;;;1.25;;
24729;SDS011;12832;52.392;13.066;2023-08-17T05:43:23;1.70;;;1.23;;
24729;SDS011;12832;52.392;13.066;2023-08-17T05:45:50;2.25;;;1.23;;
24729;SDS011;12832;52.392;13.066;2023-08-17T05:48:18;1.98;;;1.35;;
24729;SDS011;12832;52.392;13.066;2023-08-17T05:50:44;3.95;;;1.50;;
24729;SDS011;12832;52.392;13.066;2023-08-17T05:53:14;0.98;;;0.88;;
24729;SDS011;12832;52.392;13.066;2023-08-17T05:55:40;3.08;;;1.40;;
24729;SDS011;12832;52.392;13.066;2023-08-17T05:58:06;5.22;;;1.27;;
24729;SDS011;12832;52.392;13.066;2023-08-17T06:00:33;4.20;;;1.35;;
24729;SDS011;12832;52.392;13.066;2023-08-17T06:02:59;1.48;;;1.27;;
24729;SDS011;12832;52.392;13.066;2023-08-17T06:05:28;3.20;;;1.08;;
24729;SDS011;12832;52.392;13.066;2023-08-17T06:07:55;3.95;;;1.40;;
24729;SDS011;12832;52.392;13.066;2023-08-17T06:10:22;2.30;;;1.23;;
24729;SDS011;12832;52.392;13.066;2023-08-17T06:12:52;1.77;;;1.10;;
24729;SDS011;12832;52.392;13.066;2023-08-17T06:15:19;1.88;;;1.10;;
24729;SDS011;12832;52.392;13.066;2023-08-17T06:17:45;3.63;;;1.40;;
24729;SDS011;12832;52.392;13.066;2023-08-17T06:20:12;2.67;;;1.30;;
24729;SDS011;12832;52.392;13.066;2023-08-17T06:22:39;2.40;;;1.58;;
24729;SDS011;12832;52.392;13.066;2023-08-17T06:25:05;2.20;;;1.55;;
24729;SDS011;12832;52.392;13.066;2023-08-17T06:27:33;2.13;;;1.50;;
24729;SDS011;12832;52.392;13.066;2023-08-17T06:30:03;2.03;;;1.45;;
24729;SDS011;12832;52.392;13.066;2023-08-17T06:32:29;3.72;;;1.80;;
24729;SDS011;12832;52.392;13.066;2023-08-17T06:34:56;4.63;;;1.80;;
24729;SDS011;12832;52.392;13.066;2023-08-17T06:37:23;3.25;;;1.83;;
24729;SDS011;12832;52.392;13.066;2023-08-17T06:39:49;2.42;;;1.60;;
24729;SDS011;12832;52.392;13.066;2023-08-17T06:42:16;2.70;;;1.88;;
24729;SDS011;12832;52.392;13.066;2023-08-17T06:44:42;2.72;;;1.70;;
24729;SDS011;12832;52.392;13.066;2023-08-17T06:47:08;4.22;;;1.90;;
24729;SDS011;12832;52.392;13.066;2023-08-17T06:49:35;2.08;;;1.77;;
24729;SDS011;12832;52.392;13.066;2023-08-17T06:52:01;3.22;;;1.80;;
24729;SDS011;12832;52.392;13.066;2023-08-17T06:54:28;3.08;;;1.50;;
24729;SDS011;12832;52.392;13.066;2023-08-17T06:56:54;3.30;;;1.80;;
24729;SDS011;12832;52.392;13.066;2023-08-17T06:59:20;3.50;;;1.75;;
24729;SDS011;12832;52.392;13.066;2023-08-17T07:01:47;2.80;;;1.85;;
24729;SDS011;12832;52.392;13.066;2023-08-17T07:04:14;2.70;;;1.75;;
24729;SDS011;12832;52.392;13.066;2023-08-17T07:06:40;3.45;;;2.20;;
24729;SDS011;12832;52.392;13.066;2023-08-17T07:09:06;3.22;;;1.90;;
24729;SDS011;12832;52.392;13.066;2023-08-17T07:11:32;3.85;;;2.28;;
24729;SDS011;12832;52.392;13.066;2023-08-17T07:13:59;2.97;;;2.03;;
24729;SDS011;12832;52.392;13.066;2023-08-17T07:16:25;2.80;;;2.08;;
24729;SDS011;12832;52.392;13.066;2023-08-17T07:18:51;4.18;;;1.80;;
24729;SDS011;12832;52.392;13.066;2023-08-17T07:21:17;3.88;;;2.22;;
24729;SDS011;12832;52.392;13.066;2023-08-17T07:23:44;2.83;;;2.00;;
24729;SDS011;12832;52.392;13.066;2023-08-17T07:26:11;3.00;;;2.00;;
24729;SDS011;12832;52.392;13.066;2023-08-17T07:28:38;5.30;;;2.05;;
24729;SDS011;12832;52.392;13.066;2023-08-17T07:31:04;3.55;;;1.88;;
24729;SDS011;12832;52.392;13.066;2023-08-17T07:33:31;3.03;;;2.30;;
24729;SDS011;12832;52.392;13.066;2023-08-17T07:35:57;2.95;;;2.10;;
24729;SDS011;12832;52.392;13.066;2023-08-17T07:38:24;3.90;;;2.10;;
24729;SDS011;12832;52.392;13.066;2023-08-17T07:40:50;2.80;;;1.80;;
24729;SDS011;12832;52.392;13.066;2023-08-17T07:43:16;4.15;;;1.77;;
24729;SDS011;12832;52.392;13.066;2023-08-17T07:45:43;4.18;;;2.25;;
24729;SDS011;12832;52.392;13.066;2023-08-17T07:48:09;4.22;;;1.90;;
24729;SDS011;12832;52.392;13.066;2023-08-17T07:50:35;3.05;;;1.80;;
24729;SDS011;12832;52.392;13.066;2023-08-17T07:53:01;5.28;;;2.10;;
24729;SDS011;12832;52.392;13.066;2023-08-17T07:55:28;3.25;;;1.70;;
24729;SDS011;12832;52.392;13.066;2023-08-17T07:57:54;2.88;;;1.77;;
24729;SDS011;12832;52.392;13.066;2023-08-17T08:00:20;2.63;;;1.98;;
24729;SDS011;12832;52.392;13.066;2023-08-17T08:02:46;2.47;;;1.77;;
24729;SDS011;12832;52.392;13.066;2023-08-17T08:05:13;2.75;;;1.83;;
24729;SDS011;12832;52.392;13.066;2023-08-17T08:07:39;3.97;;;1.40;;
24729;SDS011;12832;52.392;13.066;2023-08-17T08:10:06;3.65;;;2.08;;
24729;SDS011;12832;52.392;13.066;2023-08-17T08:12:33;2.38;;;1.60;;
24729;SDS011;12832;52.392;13.066;2023-08-17T08:15:00;3.00;;;1.90;;
24729;SDS011;12832;52.392;13.066;2023-08-17T08:17:27;3.35;;;1.83;;
24729;SDS011;12832;52.392;13.066;2023-08-17T08:19:53;3.65;;;1.80;;
24729;SDS011;12832;52.392;13.066;2023-08-17T08:22:20;3.97;;;2.25;;
24729;SDS011;12832;52.392;13.066;2023-08-17T08:24:46;2.95;;;2.13;;
24729;SDS011;12832;52.392;13.066;2023-08-17T08:27:12;2.33;;;1.90;;
24729;SDS011;12832;52.392;13.066;2023-08-17T08:29:38;2.55;;;2.08;;
24729;SDS011;12832;52.392;13.066;2023-08-17T08:32:05;2.13;;;1.55;;
24729;SDS011;12832;52.392;13.066;2023-08-17T08:34:31;3.78;;;1.80;;
24729;SDS011;12832;52.392;13.066;2023-08-17T08:36:57;2.55;;;2.00;;
24729;SDS011;12832;52.392;13.066;2023-08-17T08:39:26;3.10;;;1.77;;
24729;SDS011;12832;52.392;13.066;2023-08-17T08:41:53;2.63;;;1.70;;
24729;SDS011;12832;52.392;13.066;2023-08-17T08:44:19;3.30;;;1.98;;
24729;SDS011;12832;52.392;13.066;2023-08-17T08:46:46;4.93;;;2.30;;
24729;SDS011;12832;52.392;13.066;2023-08-17T08:49:16;2.00;;;1.70;;
24729;SDS011;12832;52.392;13.066;2023-08-17T08:51:48;3.55;;;2.20;;
24729;SDS011;12832;52.392;13.066;2023-08-17T08:54:20;3.90;;;2.10;;
24729;SDS011;12832;52.392;13.066;2023-08-17T08:56:51;4.43;;;1.75;;
24729;SDS011;12832;52.392;13.066;2023-08-17T08:59:23;3.45;;;2.10;;
24729;SDS011;12832;52.392;13.066;2023-08-17T09:01:50;3.58;;;2.15;;
24729;SDS011;12832;52.392;13.066;2023-08-17T09:04:17;4.38;;;2.00;;
24729;SDS011;12832;52.392;13.066;2023-08-17T09:06:43;3.78;;;1.83;;
24729;SDS011;12832;52.392;13.066;2023-08-17T09:09:10;3.63;;;1.90;;
24729;SDS011;12832;52.392;13.066;2023-08-17T09:11:37;4.07;;;2.10;;
24729;SDS011;12832;52.392;13.066;2023-08-17T09:14:03;4.00;;;2.10;;
24729;SDS011;12832;52.392;13.066;2023-08-17T09:16:32;3.97;;;1.80;;
24729;SDS011;12832;52.392;13.066;2023-08-17T09:18:59;4.15;;;2.17;;
24729;SDS011;12832;52.392;13.066;2023-08-17T09:21:25;2.78;;;1.77;;
24729;SDS011;12832;52.392;13.066;2023-08-17T09:23:55;2.33;;;1.75;;
24729;SDS011;12832;52.392;13.066;2023-08-17T09:26:29;2.35;;;1.92;;
24729;SDS011;12832;52.392;13.066;2023-08-17T09:28:58;2.97;;;2.03;;
24729;SDS011;12832;52.392;13.066;2023-08-17T09:31:25;2.75;;;2.17;;
24729;SDS011;12832;52.392;13.066;2023-08-17T09:33:52;2.78;;;1.75;;
24729;SDS011;12832;52.392;13.066;2023-08-17T09:36:22;3.55;;;1.88;;
24729;SDS011;12832;52.392;13.066;2023-08-17T09:38:48;3.03;;;1.98;;
24729;SDS011;12832;52.392;13.066;2023-08-17T09:41:17;4.32;;;2.03;;
24729;SDS011;12832;52.392;13.066;2023-08-17T09:43:44;2.22;;;1.60;;
24729;SDS011;12832;52.392;13.066;2023-08-17T09:46:13;2.45;;;2.05;;
24729;SDS011;12832;52.392;13.066;2023-08-17T09:48:40;2.63;;;1.60;;
24729;SDS011;12832;52.392;13.066;2023-08-17T09:51:10;2.00;;;1.80;;
24729;SDS011;12832;52.392;13.066;2023-08-17T09:53:40;5.72;;;2.47;;
24729;SDS011;12832;52.392;13.066;2023-08-17T09:56:06;2.63;;;1.90;;
24729;SDS011;12832;52.392;13.066;2023-08-17T09:58:42;3.55;;;2.00;;
24729;SDS011;12832;52.392;13.066;2023-08-17T10:01:08;3.00;;;1.90;;
24729;SDS011;12832;52.392;13.066;2023-08-17T10:03:35;2.30;;;1.85;;
24729;SDS011;12832;52.392;13.066;2023-08-17T10:06:05;2.67;;;2.05;;
24729;SDS011;12832;52.392;13.066;2023-08-17T10:08:53;2.75;;;2.00;;
24729;SDS011;12832;52.392;13.066;2023-08-17T10:11:22;2.78;;;1.80;;
24729;SDS011;12832;52.392;13.066;2023-08-17T10:13:56;3.58;;;2.00;;
24729;SDS011;12832;52.392;13.066;2023-08-17T10:16:43;1.98;;;1.70;;
24729;SDS011;12832;52.392;13.066;2023-08-17T10:24:49;1.88;;;1.73;;
24729;SDS011;12832;52.392;13.066;2023-08-17T10:27:17;4.43;;;2.25;;
24729;SDS011;12832;52.392;13.066;2023-08-17T10:29:46;3.40;;;2.17;;
24729;SDS011;12832;52.392;13.066;2023-08-17T10:32:13;2.58;;;2.10;;
24729;SDS011;12832;52.392;13.066;2023-08-17T10:34:42;3.05;;;2.13;;
24729;SDS011;12832;52.392;13.066;2023-08-17T10:37:09;3.13;;;2.10;;
24729;SDS011;12832;52.392;13.066;2023-08-17T10:39:36;2.60;;;2.40;;
24729;SDS011;12832;52.392;13.066;2023-08-17T10:42:10;2.53;;;2.33;;
24729;SDS011;12832;52.392;13.066;2023-08-17T10:44:46;3.10;;;2.30;;
24729;SDS011;12832;52.392;13.066;2023-08-17T10:47:20;3.17;;;2.38;;
24729;SDS011;12832;52.392;13.066;2023-08-17T10:50:20;3.10;;;2.80;;
24729;SDS011;12832;52.392;13.066;2023-08-17T10:52:50;2.80;;;2.03;;
24729;SDS011;12832;52.392;13.066;2023-08-17T10:55:35;2.72;;;2.53;;
24729;SDS011;12832;52.392;13.066;2023-08-17T10:58:02;2.95;;;2.20;;
24729;SDS011;12832;52.392;13.066;2023-08-17T11:00:36;2.70;;;2.40;;
24729;SDS011;12832;52.392;13.066;2023-08-17T11:03:05;4.10;;;2.90;;
24729;SDS011;12832;52.392;13.066;2023-08-17T11:05:36;5.68;;;2.50;;
24729;SDS011;12832;52.392;13.066;2023-08-17T11:08:04;4.78;;;2.65;;
24729;SDS011;12832;52.392;13.066;2023-08-17T11:10:32;3.72;;;2.63;;
24729;SDS011;12832;52.392;13.066;2023-08-17T11:12:59;4.53;;;2.88;;
24729;SDS011;12832;52.392;13.066;2023-08-17T11:15:26;3.33;;;3.03;;
24729;SDS011;12832;52.392;13.066;2023-08-17T11:18:04;3.72;;;3.10;;
24729;SDS011;12832;52.392;13.066;2023-08-17T11:20:35;3.78;;;3.47;;
24729;SDS011;12832;52.392;13.066;2023-08-17T11:23:04;3.63;;;3.30;;
24729;SDS011;12832;52.392;13.066;2023-08-17T11:25:34;4.10;;;3.50;;
24729;SDS011;12832;52.392;13.066;2023-08-17T11:28:02;3.72;;;3.40;;
24729;SDS011;12832;52.392;13.066;2023-08-17T11:30:29;4.65;;;4.00;;
24729;SDS011;12832;52.392;13.066;2023-08-17T11:32:56;3.78;;;3.42;;
24729;SDS011;12832;52.392;13.066;2023-08-17T11:35:22;3.67;;;3.20;;
24729;SDS011;12832;52.392;13.066;2023-08-17T11:37:49;3.42;;;3.13;;
24729;SDS011;12832;52.392;13.066;2023-08-17T11:40:15;3.42;;;3.10;;
24729;SDS011;12832;52.392;13.066;2023-08-17T11:42:42;3.72;;;3.08;;
24729;SDS011;12832;52.392;13.066;2023-08-17T11:45:09;3.40;;;3.10;;
24729;SDS011;12832;52.392;13.066;2023-08-17T11:47:35;2.78;;;2.53;;
24729;SDS011;12832;52.392;13.066;2023-08-17T11:50:06;3.28;;;2.97;;
24729;SDS011;12832;52.392;13.066;2023-08-17T11:52:45;3.03;;;2.70;;
24729;SDS011;12832;52.392;13.066;2023-08-17T11:55:15;3.08;;;2.65;;
24729;SDS011;12832;52.392;13.066;2023-08-17T11:57:43;2.88;;;2.67;;
24729;SDS011;12832;52.392;13.066;2023-08-17T12:00:09;3.67;;;3.38;;
24729;SDS011;12832;52.392;13.066;2023-08-17T12:02:42;3.58;;;3.28;;
24729;SDS011;12832;52.392;13.066;2023-08-17T12:05:11;3.60;;;3.15;;
24729;SDS011;12832;52.392;13.066;2023-08-17T12:07:37;3.25;;;3.00;;
24729;SDS011;12832;52.392;13.066;2023-08-17T12:10:03;3.78;;;3.47;;
24729;SDS011;12832;52.392;13.066;2023-08-17T12:12:30;3.53;;;3.22;;
24729;SDS011;12832;52.392;13.066;2023-08-17T12:15:02;4.30;;;3.90;;
24729;SDS011;12832;52.392;13.066;2023-08-17T12:17:29;3.42;;;3.13;;
24729;SDS011;12832;52.392;13.066;2023-08-17T12:19:55;3.83;;;3.50;;
24729;SDS011;12832;52.392;13.066;2023-08-17T12:22:24;3.92;;;3.60;;
24729;SDS011;12832;52.392;13.066;2023-08-17T12:24:54;4.53;;;4.13;;
24729;SDS011;12832;52.392;13.066;2023-08-17T12:27:21;4.82;;;4.43;;
24729;SDS011;12832;52.392;13.066;2023-08-17T12:29:49;4.35;;;3.97;;
24729;SDS011;12832;52.392;13.066;2023-08-17T12:32:17;4.85;;;4.45;;
24729;SDS011;12832;52.392;13.066;2023-08-17T12:34:45;4.90;;;4.40;;
24729;SDS011;12832;52.392;13.066;2023-08-17T12:37:12;6.20;;;4.30;;
24729;SDS011;12832;52.392;13.066;2023-08-17T12:39:43;4.60;;;4.20;;
24729;SDS011;12832;52.392;13.066;2023-08-17T12:42:09;7.75;;;4.72;;
24729;SDS011;12832;52.392;13.066;2023-08-17T12:44:37;4.95;;;4.47;;
24729;SDS011;12832;52.392;13.066;2023-08-17T12:47:04;6.07;;;4.57;;
24729;SDS011;12832;52.392;13.066;2023-08-17T12:49:30;5.25;;;4.18;;
24729;SDS011;12832;52.392;13.066;2023-08-17T12:51:56;4.97;;;4.43;;
24729;SDS011;12832;52.392;13.066;2023-08-17T12:54:22;3.90;;;3.60;;
24729;SDS011;12832;52.392;13.066;2023-08-17T12:56:49;4.82;;;4.43;;
24729;SDS011;12832;52.392;13.066;2023-08-17T12:59:15;4.97;;;4.47;;
24729;SDS011;12832;52.392;13.066;2023-08-17T13:01:41;4.80;;;4.10;;
24729;SDS011;12832;52.392;13.066;2023-08-17T13:04:08;4.80;;;4.30;;
24729;SDS011;12832;52.392;13.066;2023-08-17T13:06:34;4.93;;;4.47;;
24729;SDS011;12832;52.392;13.066;2023-08-17T13:09:14;4.97;;;4.57;;
24729;SDS011;12832;52.392;13.066;2023-08-17T13:11:41;8.35;;;5.78;;
24729;SDS011;12832;52.392;13.066;2023-08-17T13:14:07;5.30;;;4.80;;
24729;SDS011;12832;52.392;13.066;2023-08-17T13:16:33;5.20;;;4.70;;
24729;SDS011;12832;52.392;13.066;2023-08-17T13:19:00;5.60;;;5.20;;
24729;SDS011;12832;52.392;13.066;2023-08-17T13:21:26;4.10;;;3.80;;
24729;SDS011;12832;52.392;13.066;2023-08-17T13:23:52;5.28;;;4.70;;
24729;SDS011;12832;52.392;13.066;2023-08-17T13:26:18;5.18;;;4.68;;
24729;SDS011;12832;52.392;13.066;2023-08-17T13:28:47;5.20;;;4.70;;
24729;SDS011;12832;52.392;13.066;2023-08-17T13:31:13;5.70;;;5.20;;
24729;SDS011;12832;52.392;13.066;2023-08-17T13:33:49;5.78;;;4.50;;
24729;SDS011;12832;52.392;13.066;2023-08-17T13:36:16;5.57;;;5.07;;
24729;SDS011;12832;52.392;13.066;2023-08-17T13:38:43;5.63;;;5.13;;
24729;SDS011;12832;52.392;13.066;2023-08-17T13:41:12;5.07;;;4.57;;
24729;SDS011;12832;52.392;13.066;2023-08-17T13:43:38;6.20;;;5.55;;
24729;SDS011;12832;52.392;13.066;2023-08-17T13:46:05;5.65;;;5.15;;
24729;SDS011;12832;52.392;13.066;2023-08-17T13:48:31;5.50;;;4.50;;
24729;SDS011;12832;52.392;13.066;2023-08-17T13:50:58;5.63;;;5.13;;
24729;SDS011;12832;52.392;13.066;2023-08-17T13:53:24;5.47;;;4.97;;
24729;SDS011;12832;52.392;13.066;2023-08-17T13:55:50;5.63;;;5.13;;
24729;SDS011;12832;52.392;13.066;2023-08-17T13:58:17;5.30;;;4.90;;
24729;SDS011;12832;52.392;13.066;2023-08-17T14:00:43;5.68;;;5.18;;
24729;SDS011;12832;52.392;13.066;2023-08-17T14:03:09;6.18;;;5.53;;
24729;SDS011;12832;52.392;13.066;2023-08-17T14:05:35;7.93;;;4.63;;
24729;SDS011;12832;52.392;13.066;2023-08-17T14:08:02;7.00;;;5.60;;
24729;SDS011;12832;52.392;13.066;2023-08-17T14:10:29;5.07;;;4.68;;
24729;SDS011;12832;52.392;13.066;2023-08-17T14:13:05;5.30;;;4.78;;
24729;SDS011;12832;52.392;13.066;2023-08-17T14:15:31;5.28;;;4.78;;
24729;SDS011;12832;52.392;13.066;2023-08-17T14:17:58;5.40;;;5.00;;
24729;SDS011;12832;52.392;13.066;2023-08-17T14:20:24;5.53;;;4.95;;
24729;SDS011;12832;52.392;13.066;2023-08-17T14:22:50;5.28;;;4.80;;
24729;SDS011;12832;52.392;13.066;2023-08-17T14:25:17;5.10;;;4.60;;
24729;SDS011;12832;52.392;13.066;2023-08-17T14:27:43;4.85;;;4.45;;
24729;SDS011;12832;52.392;13.066;2023-08-17T14:30:10;4.25;;;3.95;;
24729;SDS011;12832;52.392;13.066;2023-08-17T14:32:36;4.95;;;4.55;;
24729;SDS011;12832;52.392;13.066;2023-08-17T14:35:02;5.47;;;5.03;;
24729;SDS011;12832;52.392;13.066;2023-08-17T14:37:29;6.05;;;4.95;;
24729;SDS011;12832;52.392;13.066;2023-08-17T14:39:56;6.22;;;5.32;;
24729;SDS011;12832;52.392;13.066;2023-08-17T14:42:22;5.40;;;4.90;;
24729;SDS011;12832;52.392;13.066;2023-08-17T14:44:50;5.03;;;4.63;;
24729;SDS011;12832;52.392;13.066;2023-08-17T14:47:16;4.75;;;4.35;;